sensor_id;sensor_type;location;lat;lon;timestamp;pressure;altitude;pressure_sealevel;temperature;humidity
21520;BME280;10921;53.614;9.882;2022-11-15T00:00:55;100915.59;;;8.07;89.80
21520;BME280;10921;53.614;9.882;2022-11-15T00:03:26;100920.41;;;8.13;89.77
21520;BME280;10921;53.614;9.882;2022-11-15T00:05:53;100900.03;;;8.03;89.43
21520;BME280;10921;53.614;9.882;2022-11-15T00:08:20;100916.06;;;8.12;89.34
21520;BME280;10921;53.614;9.882;2022-11-15T00:10:57;100918.72;;;8.12;89.70
21520;BME280;10921;53.614;9.882;2022-11-15T00:13:24;100925.28;;;8.08;89.27
21520;BME280;10921;53.614;9.882;2022-11-15T00:15:51;100912.47;;;8.02;89.24
21520;BME280;10921;53.614;9.882;2022-11-15T00:18:18;100927.19;;;8.06;89.39
21520;BME280;10921;53.614;9.882;2022-11-15T00:20:45;100916.94;;;8.02;89.85
21520;BME280;10921;53.614;9.882;2022-11-15T00:23:11;100924.66;;;8.05;89.53
21520;BME280;10921;53.614;9.882;2022-11-15T00:25:38;100910.41;;;8.06;89.81
21520;BME280;10921;53.614;9.882;2022-11-15T00:28:05;100899.28;;;8.01;90.17
21520;BME280;10921;53.614;9.882;2022-11-15T00:30:31;100917.03;;;8.11;90.30
21520;BME280;10921;53.614;9.882;2022-11-15T00:33:02;100924.28;;;8.21;90.77
21520;BME280;10921;53.614;9.882;2022-11-15T00:35:31;100917.03;;;8.23;91.13
21520;BME280;10921;53.614;9.882;2022-11-15T00:37:58;100902.75;;;8.24;90.76
21520;BME280;10921;53.614;9.882;2022-11-15T00:40:25;100919.88;;;8.42;90.77
21520;BME280;10921;53.614;9.882;2022-11-15T00:42:51;100912.25;;;8.49;90.91
21520;BME280;10921;53.614;9.882;2022-11-15T00:45:20;100913.56;;;8.54;90.64
21520;BME280;10921;53.614;9.882;2022-11-15T00:47:46;100895.94;;;8.53;90.23
21520;BME280;10921;53.614;9.882;2022-11-15T00:50:13;100919.44;;;8.69;90.15
21520;BME280;10921;53.614;9.882;2022-11-15T00:52:41;100915.53;;;8.73;89.90
21520;BME280;10921;53.614;9.882;2022-11-15T00:55:13;100905.41;;;8.67;89.81
21520;BME280;10921;53.614;9.882;2022-11-15T00:57:40;100912.38;;;8.79;89.51
21520;BME280;10921;53.614;9.882;2022-11-15T01:00:07;100914.78;;;8.82;89.24
21520;BME280;10921;53.614;9.882;2022-11-15T01:02:34;100913.53;;;8.86;88.99
21520;BME280;10921;53.614;9.882;2022-11-15T01:05:01;100899.78;;;8.81;88.51
21520;BME280;10921;53.614;9.882;2022-11-15T01:07:27;100914.00;;;8.91;88.52
21520;BME280;10921;53.614;9.882;2022-11-15T01:09:54;100907.81;;;8.91;88.05
21520;BME280;10921;53.614;9.882;2022-11-15T01:12:20;100913.38;;;8.99;87.72
21520;BME280;10921;53.614;9.882;2022-11-15T01:14:47;100903.69;;;8.98;87.48
21520;BME280;10921;53.614;9.882;2022-11-15T01:17:13;100912.94;;;9.03;86.99
21520;BME280;10921;53.614;9.882;2022-11-15T01:19:39;100893.56;;;8.92;86.19
21520;BME280;10921;53.614;9.882;2022-11-15T01:22:06;100906.22;;;8.99;85.92
21520;BME280;10921;53.614;9.882;2022-11-15T01:24:32;100884.53;;;8.83;85.49
21520;BME280;10921;53.614;9.882;2022-11-15T01:26:59;100891.81;;;8.81;85.04
21520;BME280;10921;53.614;9.882;2022-11-15T01:29:25;100900.50;;;8.83;84.87
21520;BME280;10921;53.614;9.882;2022-11-15T01:31:53;100894.00;;;8.76;84.82
21520;BME280;10921;53.614;9.882;2022-11-15T01:34:20;100903.47;;;8.69;84.29
21520;BME280;10921;53.614;9.882;2022-11-15T01:36:46;100903.97;;;8.63;84.27
21520;BME280;10921;53.614;9.882;2022-11-15T01:39:12;100891.94;;;8.48;84.63
21520;BME280;10921;53.614;9.882;2022-11-15T01:41:39;100883.91;;;8.38;84.26
21520;BME280;10921;53.614;9.882;2022-11-15T01:46:59;100889.91;;;8.29;84.87
21520;BME280;10921;53.614;9.882;2022-11-15T01:49:28;100868.72;;;8.06;85.03
21520;BME280;10921;53.614;9.882;2022-11-15T01:51:57;100884.44;;;8.09;85.09
21520;BME280;10921;53.614;9.882;2022-11-15T01:54:24;100874.41;;;8.02;85.21
21520;BME280;10921;53.614;9.882;2022-11-15T01:57:17;100883.00;;;8.05;86.34
21520;BME280;10921;53.614;9.882;2022-11-15T01:59:44;100880.59;;;7.91;85.43
21520;BME280;10921;53.614;9.882;2022-11-15T02:02:12;100878.78;;;7.92;85.87
21520;BME280;10921;53.614;9.882;2022-11-15T02:04:47;100864.31;;;7.85;86.81
21520;BME280;10921;53.614;9.882;2022-11-15T02:07:18;100870.69;;;7.82;86.82
21520;BME280;10921;53.614;9.882;2022-11-15T02:09:46;100852.25;;;7.69;86.37
21520;BME280;10921;53.614;9.882;2022-11-15T02:12:15;100841.97;;;7.65;86.51
21520;BME280;10921;53.614;9.882;2022-11-15T02:14:49;100862.63;;;7.72;86.55
21520;BME280;10921;53.614;9.882;2022-11-15T02:33:09;100855.66;;;7.27;86.44
21520;BME280;10921;53.614;9.882;2022-11-15T02:38:59;100859.63;;;7.21;87.76
21520;BME280;10921;53.614;9.882;2022-11-15T02:41:40;100835.97;;;7.07;87.65
21520;BME280;10921;53.614;9.882;2022-11-15T02:46:54;100844.41;;;7.01;87.15
21520;BME280;10921;53.614;9.882;2022-11-15T02:49:42;100843.19;;;6.94;87.13
21520;BME280;10921;53.614;9.882;2022-11-15T02:52:17;100832.22;;;6.87;87.17
21520;BME280;10921;53.614;9.882;2022-11-15T02:54:59;100837.53;;;6.87;88.04
21520;BME280;10921;53.614;9.882;2022-11-15T03:00:42;100833.25;;;6.74;87.08
21520;BME280;10921;53.614;9.882;2022-11-15T03:03:16;100845.31;;;6.66;87.05
21520;BME280;10921;53.614;9.882;2022-11-15T03:11:12;100830.75;;;6.37;87.97
21520;BME280;10921;53.614;9.882;2022-11-15T03:13:47;100842.69;;;6.43;88.22
21520;BME280;10921;53.614;9.882;2022-11-15T03:16:37;100842.47;;;6.46;88.82
21520;BME280;10921;53.614;9.882;2022-11-15T03:19:21;100827.59;;;6.32;88.47
21520;BME280;10921;53.614;9.882;2022-11-15T03:21:52;100843.03;;;6.38;88.06
21520;BME280;10921;53.614;9.882;2022-11-15T03:24:20;100835.03;;;6.27;88.61
21520;BME280;10921;53.614;9.882;2022-11-15T03:26:53;100846.75;;;6.35;88.90
21520;BME280;10921;53.614;9.882;2022-11-15T03:29:24;100837.47;;;6.30;89.35
21520;BME280;10921;53.614;9.882;2022-11-15T03:32:04;100839.56;;;6.38;89.68
21520;BME280;10921;53.614;9.882;2022-11-15T03:34:44;100822.28;;;6.32;89.45
21520;BME280;10921;53.614;9.882;2022-11-15T03:37:14;100819.53;;;6.33;89.61
21520;BME280;10921;53.614;9.882;2022-11-15T03:39:43;100831.38;;;6.41;90.07
21520;BME280;10921;53.614;9.882;2022-11-15T03:42:30;100831.22;;;6.42;90.09
21520;BME280;10921;53.614;9.882;2022-11-15T03:45:05;100833.53;;;6.47;90.77
21520;BME280;10921;53.614;9.882;2022-11-15T03:47:39;100829.94;;;6.48;90.92
21520;BME280;10921;53.614;9.882;2022-11-15T03:50:11;100828.75;;;6.52;91.37
21520;BME280;10921;53.614;9.882;2022-11-15T03:52:40;100815.84;;;6.47;91.41
21520;BME280;10921;53.614;9.882;2022-11-15T03:55:10;100829.00;;;6.60;91.67
21520;BME280;10921;53.614;9.882;2022-11-15T03:57:37;100815.28;;;6.55;91.83
21520;BME280;10921;53.614;9.882;2022-11-15T04:00:05;100829.16;;;6.69;91.99
21520;BME280;10921;53.614;9.882;2022-11-15T04:02:31;100838.56;;;6.74;91.81
21520;BME280;10921;53.614;9.882;2022-11-15T04:04:58;100842.78;;;6.76;91.69
21520;BME280;10921;53.614;9.882;2022-11-15T04:07:24;100831.34;;;6.76;91.54
21520;BME280;10921;53.614;9.882;2022-11-15T04:09:51;100833.53;;;6.82;91.79
21520;BME280;10921;53.614;9.882;2022-11-15T04:12:38;100825.81;;;6.79;91.83
21520;BME280;10921;53.614;9.882;2022-11-15T04:15:09;100839.91;;;6.90;91.87
21520;BME280;10921;53.614;9.882;2022-11-15T04:17:54;100838.38;;;6.99;93.05
21520;BME280;10921;53.614;9.882;2022-11-15T04:20:23;100825.00;;;7.00;92.24
21520;BME280;10921;53.614;9.882;2022-11-15T04:23:10;100829.47;;;7.11;92.15
21520;BME280;10921;53.614;9.882;2022-11-15T04:25:59;100825.22;;;7.20;92.33
21520;BME280;10921;53.614;9.882;2022-11-15T04:28:26;100819.94;;;7.20;92.25
21520;BME280;10921;53.614;9.882;2022-11-15T04:30:55;100818.38;;;7.28;92.55
21520;BME280;10921;53.614;9.882;2022-11-15T04:33:22;100828.75;;;7.43;92.35
21520;BME280;10921;53.614;9.882;2022-11-15T04:35:49;100827.44;;;7.48;92.39
21520;BME280;10921;53.614;9.882;2022-11-15T04:38:35;100830.31;;;7.56;92.40
21520;BME280;10921;53.614;9.882;2022-11-15T04:41:02;100819.44;;;7.59;92.07
21520;BME280;10921;53.614;9.882;2022-11-15T04:43:29;100828.97;;;7.62;91.96
21520;BME280;10921;53.614;9.882;2022-11-15T04:45:56;100834.13;;;7.74;92.07
21520;BME280;10921;53.614;9.882;2022-11-15T04:48:23;100833.50;;;7.82;91.89
21520;BME280;10921;53.614;9.882;2022-11-15T04:50:49;100836.41;;;7.90;91.68
21520;BME280;10921;53.614;9.882;2022-11-15T04:53:16;100823.56;;;7.95;91.36
21520;BME280;10921;53.614;9.882;2022-11-15T04:55:45;100828.75;;;8.08;91.46
21520;BME280;10921;53.614;9.882;2022-11-15T04:58:12;100825.81;;;8.11;91.31
21520;BME280;10921;53.614;9.882;2022-11-15T05:00:38;100822.66;;;8.17;91.19
21520;BME280;10921;53.614;9.882;2022-11-15T05:03:06;100836.88;;;8.27;91.26
21520;BME280;10921;53.614;9.882;2022-11-15T05:05:51;100816.72;;;8.25;91.01
21520;BME280;10921;53.614;9.882;2022-11-15T05:08:17;100819.38;;;8.36;90.97
21520;BME280;10921;53.614;9.882;2022-11-15T05:10:44;100828.25;;;8.46;91.05
21520;BME280;10921;53.614;9.882;2022-11-15T05:13:11;100828.00;;;8.49;90.86
21520;BME280;10921;53.614;9.882;2022-11-15T05:15:37;100812.03;;;8.49;91.22
21520;BME280;10921;53.614;9.882;2022-11-15T05:18:04;100831.19;;;8.64;90.76
21520;BME280;10921;53.614;9.882;2022-11-15T05:20:30;100807.38;;;8.62;90.97
21520;BME280;10921;53.614;9.882;2022-11-15T05:22:57;100799.25;;;8.64;90.78
21520;BME280;10921;53.614;9.882;2022-11-15T05:25:23;100804.38;;;8.76;90.67
21520;BME280;10921;53.614;9.882;2022-11-15T05:27:50;100793.03;;;8.74;90.11
21520;BME280;10921;53.614;9.882;2022-11-15T05:30:17;100814.63;;;8.81;89.81
21520;BME280;10921;53.614;9.882;2022-11-15T05:32:44;100811.84;;;8.82;90.04
21520;BME280;10921;53.614;9.882;2022-11-15T05:35:21;100819.16;;;8.90;90.59
21520;BME280;10921;53.614;9.882;2022-11-15T05:37:52;100817.34;;;8.91;89.32
21520;BME280;10921;53.614;9.882;2022-11-15T05:40:18;100805.00;;;8.90;89.24
21520;BME280;10921;53.614;9.882;2022-11-15T05:42:45;100802.34;;;8.90;89.24
21520;BME280;10921;53.614;9.882;2022-11-15T05:45:13;100803.19;;;8.90;89.36
21520;BME280;10921;53.614;9.882;2022-11-15T05:47:40;100815.88;;;8.98;89.49
21520;BME280;10921;53.614;9.882;2022-11-15T05:50:07;100799.31;;;8.94;89.25
21520;BME280;10921;53.614;9.882;2022-11-15T05:52:40;100821.63;;;9.03;89.21
21520;BME280;10921;53.614;9.882;2022-11-15T05:55:08;100813.63;;;9.03;89.52
21520;BME280;10921;53.614;9.882;2022-11-15T05:57:35;100811.09;;;9.01;89.42
21520;BME280;10921;53.614;9.882;2022-11-15T06:00:03;100812.09;;;9.00;89.10
21520;BME280;10921;53.614;9.882;2022-11-15T06:02:29;100804.97;;;9.01;89.41
21520;BME280;10921;53.614;9.882;2022-11-15T06:04:56;100812.84;;;9.12;89.42
21520;BME280;10921;53.614;9.882;2022-11-15T06:07:23;100816.66;;;9.19;89.30
21520;BME280;10921;53.614;9.882;2022-11-15T06:09:49;100818.34;;;9.20;89.56
21520;BME280;10921;53.614;9.882;2022-11-15T06:12:16;100808.97;;;9.16;89.77
21520;BME280;10921;53.614;9.882;2022-11-15T06:14:42;100824.56;;;9.30;89.50
21520;BME280;10921;53.614;9.882;2022-11-15T06:17:08;100816.97;;;9.26;89.46
21520;BME280;10921;53.614;9.882;2022-11-15T06:19:36;100835.50;;;9.37;89.77
21520;BME280;10921;53.614;9.882;2022-11-15T06:22:03;100826.41;;;9.39;89.76
21520;BME280;10921;53.614;9.882;2022-11-15T06:24:29;100816.59;;;9.40;89.75
21520;BME280;10921;53.614;9.882;2022-11-15T06:26:56;100811.41;;;9.38;89.48
21520;BME280;10921;53.614;9.882;2022-11-15T06:29:23;100821.81;;;9.51;89.74
21520;BME280;10921;53.614;9.882;2022-11-15T06:31:50;100825.19;;;9.53;89.69
21520;BME280;10921;53.614;9.882;2022-11-15T06:34:16;100826.50;;;9.59;89.50
21520;BME280;10921;53.614;9.882;2022-11-15T06:36:43;100810.06;;;9.53;89.58
21520;BME280;10921;53.614;9.882;2022-11-15T06:39:09;100831.00;;;9.68;89.42
21520;BME280;10921;53.614;9.882;2022-11-15T06:41:36;100796.16;;;9.50;89.56
21520;BME280;10921;53.614;9.882;2022-11-15T06:44:02;100822.03;;;9.69;89.49
21520;BME280;10921;53.614;9.882;2022-11-15T06:46:29;100829.47;;;9.75;89.50
21520;BME280;10921;53.614;9.882;2022-11-15T06:48:55;100812.34;;;9.68;89.43
21520;BME280;10921;53.614;9.882;2022-11-15T06:51:22;100844.66;;;9.84;89.55
21520;BME280;10921;53.614;9.882;2022-11-15T06:53:48;100825.41;;;9.80;89.18
21520;BME280;10921;53.614;9.882;2022-11-15T06:56:15;100826.97;;;9.83;89.38
21520;BME280;10921;53.614;9.882;2022-11-15T06:58:41;100836.81;;;9.92;89.15
21520;BME280;10921;53.614;9.882;2022-11-15T07:01:10;100851.97;;;10.01;89.41
21520;BME280;10921;53.614;9.882;2022-11-15T07:03:39;100838.78;;;10.00;89.30
21520;BME280;10921;53.614;9.882;2022-11-15T07:06:07;100839.94;;;10.07;89.02
21520;BME280;10921;53.614;9.882;2022-11-15T07:08:34;100838.09;;;10.07;89.27
21520;BME280;10921;53.614;9.882;2022-11-15T07:11:03;100854.94;;;10.17;89.10
21520;BME280;10921;53.614;9.882;2022-11-15T07:13:32;100860.75;;;10.23;89.15
21520;BME280;10921;53.614;9.882;2022-11-15T07:16:04;100850.34;;;10.19;89.00
21520;BME280;10921;53.614;9.882;2022-11-15T07:18:33;100858.22;;;10.31;88.86
21520;BME280;10921;53.614;9.882;2022-11-15T07:21:04;100865.81;;;10.35;88.98
21520;BME280;10921;53.614;9.882;2022-11-15T07:23:31;100857.94;;;10.34;88.67
21520;BME280;10921;53.614;9.882;2022-11-15T07:25:59;100852.63;;;10.34;88.36
21520;BME280;10921;53.614;9.882;2022-11-15T07:28:26;100859.75;;;10.43;88.15
21520;BME280;10921;53.614;9.882;2022-11-15T07:30:54;100863.97;;;10.45;87.99
21520;BME280;10921;53.614;9.882;2022-11-15T07:33:21;100870.31;;;10.54;88.02
21520;BME280;10921;53.614;9.882;2022-11-15T07:35:47;100853.31;;;10.55;87.88
21520;BME280;10921;53.614;9.882;2022-11-15T07:38:17;100863.84;;;10.66;87.73
21520;BME280;10921;53.614;9.882;2022-11-15T07:40:46;100859.88;;;10.70;87.71
21520;BME280;10921;53.614;9.882;2022-11-15T07:43:13;100863.41;;;10.71;87.33
21520;BME280;10921;53.614;9.882;2022-11-15T07:45:45;100868.03;;;10.78;87.68
21520;BME280;10921;53.614;9.882;2022-11-15T07:48:11;100851.47;;;10.75;87.15
21520;BME280;10921;53.614;9.882;2022-11-15T07:50:42;100832.94;;;10.73;87.10
21520;BME280;10921;53.614;9.882;2022-11-15T07:53:09;100838.06;;;11.04;87.70
21520;BME280;10921;53.614;9.882;2022-11-15T07:55:35;100845.97;;;10.96;86.19
21520;BME280;10921;53.614;9.882;2022-11-15T07:58:07;100850.31;;;10.97;85.72
21520;BME280;10921;53.614;9.882;2022-11-15T08:00:34;100854.38;;;11.01;85.71
21520;BME280;10921;53.614;9.882;2022-11-15T08:03:06;100853.38;;;11.02;86.06
21520;BME280;10921;53.614;9.882;2022-11-15T08:05:34;100852.81;;;11.08;85.43
21520;BME280;10921;53.614;9.882;2022-11-15T08:08:01;100852.38;;;11.12;85.13
21520;BME280;10921;53.614;9.882;2022-11-15T08:10:29;100849.41;;;11.15;84.64
21520;BME280;10921;53.614;9.882;2022-11-15T08:13:00;100840.13;;;11.19;84.72
21520;BME280;10921;53.614;9.882;2022-11-15T08:15:28;100847.00;;;11.22;83.70
21520;BME280;10921;53.614;9.882;2022-11-15T08:17:59;100837.31;;;11.21;83.75
21520;BME280;10921;53.614;9.882;2022-11-15T08:20:28;100856.28;;;11.27;82.90
21520;BME280;10921;53.614;9.882;2022-11-15T08:22:59;100834.09;;;11.17;82.54
21520;BME280;10921;53.614;9.882;2022-11-15T08:25:27;100836.19;;;11.23;82.41
21520;BME280;10921;53.614;9.882;2022-11-15T08:27:55;100854.41;;;11.38;82.50
21520;BME280;10921;53.614;9.882;2022-11-15T08:30:22;100840.50;;;11.34;82.25
21520;BME280;10921;53.614;9.882;2022-11-15T08:32:51;100856.66;;;11.42;82.30
21520;BME280;10921;53.614;9.882;2022-11-15T08:35:20;100853.69;;;11.45;81.86
21520;BME280;10921;53.614;9.882;2022-11-15T08:37:54;100865.75;;;11.49;81.63
21520;BME280;10921;53.614;9.882;2022-11-15T08:40:20;100850.31;;;11.43;81.23
21520;BME280;10921;53.614;9.882;2022-11-15T08:42:47;100858.13;;;11.54;80.76
21520;BME280;10921;53.614;9.882;2022-11-15T08:45:14;100856.44;;;11.53;80.34
21520;BME280;10921;53.614;9.882;2022-11-15T08:47:41;100857.00;;;11.57;79.94
21520;BME280;10921;53.614;9.882;2022-11-15T08:50:08;100864.41;;;11.63;80.00
21520;BME280;10921;53.614;9.882;2022-11-15T08:52:35;100850.34;;;11.61;79.68
21520;BME280;10921;53.614;9.882;2022-11-15T08:55:01;100857.09;;;11.65;79.70
21520;BME280;10921;53.614;9.882;2022-11-15T08:57:29;100853.84;;;11.71;79.70
21520;BME280;10921;53.614;9.882;2022-11-15T08:59:57;100860.28;;;11.78;79.85
21520;BME280;10921;53.614;9.882;2022-11-15T09:02:23;100865.34;;;11.81;79.39
21520;BME280;10921;53.614;9.882;2022-11-15T09:04:50;100859.16;;;11.81;79.03
21520;BME280;10921;53.614;9.882;2022-11-15T09:07:17;100860.25;;;11.88;78.56
21520;BME280;10921;53.614;9.882;2022-11-15T09:09:43;100859.56;;;11.86;78.27
21520;BME280;10921;53.614;9.882;2022-11-15T09:12:10;100854.63;;;11.91;78.25
21520;BME280;10921;53.614;9.882;2022-11-15T09:14:37;100855.13;;;11.94;78.26
21520;BME280;10921;53.614;9.882;2022-11-15T09:17:06;100843.94;;;11.91;78.46
21520;BME280;10921;53.614;9.882;2022-11-15T09:19:33;100838.56;;;11.91;78.67
21520;BME280;10921;53.614;9.882;2022-11-15T09:21:59;100862.44;;;12.02;78.04
21520;BME280;10921;53.614;9.882;2022-11-15T09:24:26;100845.38;;;12.03;77.92
21520;BME280;10921;53.614;9.882;2022-11-15T09:26:55;100851.66;;;12.12;78.56
21520;BME280;10921;53.614;9.882;2022-11-15T09:29:22;100851.22;;;12.16;78.46
21520;BME280;10921;53.614;9.882;2022-11-15T09:31:48;100832.78;;;12.13;78.74
21520;BME280;10921;53.614;9.882;2022-11-15T09:34:17;100849.28;;;12.26;77.82
21520;BME280;10921;53.614;9.882;2022-11-15T09:36:44;100831.19;;;12.20;77.78
21520;BME280;10921;53.614;9.882;2022-11-15T09:39:10;100850.22;;;12.35;77.64
21520;BME280;10921;53.614;9.882;2022-11-15T09:42:02;100853.22;;;12.50;78.53
21520;BME280;10921;53.614;9.882;2022-11-15T09:44:39;100858.47;;;12.59;77.90
21520;BME280;10921;53.614;9.882;2022-11-15T09:49:36;100856.38;;;12.71;76.87
21520;BME280;10921;53.614;9.882;2022-11-15T09:52:03;100845.22;;;12.76;77.02
21520;BME280;10921;53.614;9.882;2022-11-15T09:54:35;100853.84;;;12.87;76.83
21520;BME280;10921;53.614;9.882;2022-11-15T09:57:30;100858.59;;;12.93;76.10
21520;BME280;10921;53.614;9.882;2022-11-15T10:03:12;100872.00;;;13.19;76.50
21520;BME280;10921;53.614;9.882;2022-11-15T10:05:46;100858.75;;;13.18;74.99
21520;BME280;10921;53.614;9.882;2022-11-15T10:08:20;100858.47;;;13.21;73.86
21520;BME280;10921;53.614;9.882;2022-11-15T10:11:06;100859.84;;;13.25;74.64
21520;BME280;10921;53.614;9.882;2022-11-15T10:13:58;100860.00;;;13.23;73.55
21520;BME280;10921;53.614;9.882;2022-11-15T10:19:32;100855.84;;;13.29;74.33
21520;BME280;10921;53.614;9.882;2022-11-15T10:22:24;100844.28;;;13.28;74.16
21520;BME280;10921;53.614;9.882;2022-11-15T10:25:00;100843.59;;;13.26;73.70
21520;BME280;10921;53.614;9.882;2022-11-15T10:27:30;100849.44;;;13.30;72.89
21520;BME280;10921;53.614;9.882;2022-11-15T10:29:56;100828.16;;;13.20;73.15
21520;BME280;10921;53.614;9.882;2022-11-15T10:32:23;100832.19;;;13.24;72.96
21520;BME280;10921;53.614;9.882;2022-11-15T10:34:49;100828.69;;;13.32;73.37
21520;BME280;10921;53.614;9.882;2022-11-15T10:37:31;100843.00;;;13.41;74.49
21520;BME280;10921;53.614;9.882;2022-11-15T10:40:27;100829.78;;;13.47;74.21
21520;BME280;10921;53.614;9.882;2022-11-15T10:43:15;100834.66;;;13.44;73.88
21520;BME280;10921;53.614;9.882;2022-11-15T10:45:42;100833.13;;;13.41;72.96
21520;BME280;10921;53.614;9.882;2022-11-15T10:53:29;100818.06;;;13.48;73.87
21520;BME280;10921;53.614;9.882;2022-11-15T10:56:05;100802.97;;;13.39;73.38
21520;BME280;10921;53.614;9.882;2022-11-15T10:58:43;100809.34;;;13.46;73.15
21520;BME280;10921;53.614;9.882;2022-11-15T11:01:11;100813.69;;;13.47;73.45
21520;BME280;10921;53.614;9.882;2022-11-15T11:03:39;100803.97;;;13.46;73.73
21520;BME280;10921;53.614;9.882;2022-11-15T11:06:16;100808.22;;;13.57;74.01
21520;BME280;10921;53.614;9.882;2022-11-15T11:09:17;100808.09;;;13.66;74.43
21520;BME280;10921;53.614;9.882;2022-11-15T11:11:49;100808.09;;;13.66;73.73
21520;BME280;10921;53.614;9.882;2022-11-15T11:14:28;100809.28;;;13.72;74.01
21520;BME280;10921;53.614;9.882;2022-11-15T11:30:46;100775.63;;;13.94;73.65
21520;BME280;10921;53.614;9.882;2022-11-15T11:33:32;100791.09;;;14.00;73.89
21520;BME280;10921;53.614;9.882;2022-11-15T11:39:21;100778.03;;;14.13;73.41
21520;BME280;10921;53.614;9.882;2022-11-15T11:47:34;100768.66;;;14.33;73.29
21520;BME280;10921;53.614;9.882;2022-11-15T11:50:14;100769.66;;;14.32;72.91
21520;BME280;10921;53.614;9.882;2022-11-15T11:55:50;100761.28;;;14.43;72.28
21520;BME280;10921;53.614;9.882;2022-11-15T12:00:59;100764.78;;;14.52;72.52
21520;BME280;10921;53.614;9.882;2022-11-15T12:06:23;100753.56;;;14.57;71.69
21520;BME280;10921;53.614;9.882;2022-11-15T12:09:00;100739.47;;;14.55;71.68
21520;BME280;10921;53.614;9.882;2022-11-15T12:11:48;100728.38;;;14.58;72.37
21520;BME280;10921;53.614;9.882;2022-11-15T12:17:03;100734.25;;;14.61;70.09
21520;BME280;10921;53.614;9.882;2022-11-15T12:19:30;100753.03;;;14.77;70.74
21520;BME280;10921;53.614;9.882;2022-11-15T12:22:04;100748.47;;;14.86;70.91
21520;BME280;10921;53.614;9.882;2022-11-15T12:25:00;100725.97;;;14.87;70.90
21520;BME280;10921;53.614;9.882;2022-11-15T12:27:37;100735.28;;;15.16;70.23
21520;BME280;10921;53.614;9.882;2022-11-15T12:30:20;100736.41;;;15.29;69.13
21520;BME280;10921;53.614;9.882;2022-11-15T12:33:00;100731.31;;;15.42;68.54
21520;BME280;10921;53.614;9.882;2022-11-15T12:35:41;100713.97;;;15.45;68.40
21520;BME280;10921;53.614;9.882;2022-11-15T12:38:12;100729.88;;;15.63;67.86
21520;BME280;10921;53.614;9.882;2022-11-15T12:43:55;100722.63;;;15.71;66.81
21520;BME280;10921;53.614;9.882;2022-11-15T13:02:28;100708.16;;;15.95;66.11
21520;BME280;10921;53.614;9.882;2022-11-15T13:13:01;100690.91;;;16.04;66.23
21520;BME280;10921;53.614;9.882;2022-11-15T13:15:43;100685.34;;;16.06;65.47
21520;BME280;10921;53.614;9.882;2022-11-15T13:18:35;100680.09;;;16.12;66.07
21520;BME280;10921;53.614;9.882;2022-11-15T13:21:03;100678.41;;;16.11;65.28
21520;BME280;10921;53.614;9.882;2022-11-15T13:23:54;100684.75;;;16.18;66.10
21520;BME280;10921;53.614;9.882;2022-11-15T13:26:22;100677.53;;;16.19;64.90
21520;BME280;10921;53.614;9.882;2022-11-15T13:28:50;100675.56;;;16.28;65.40
21520;BME280;10921;53.614;9.882;2022-11-15T13:33:47;100677.47;;;16.42;65.32
21520;BME280;10921;53.614;9.882;2022-11-15T13:36:26;100680.25;;;16.48;65.48
21520;BME280;10921;53.614;9.882;2022-11-15T13:39:01;100684.72;;;16.56;64.48
21520;BME280;10921;53.614;9.882;2022-11-15T13:41:31;100660.63;;;16.63;64.59
21520;BME280;10921;53.614;9.882;2022-11-15T13:43:59;100660.34;;;16.72;63.77
21520;BME280;10921;53.614;9.882;2022-11-15T13:46:31;100641.66;;;16.71;63.78
21520;BME280;10921;53.614;9.882;2022-11-15T13:49:04;100650.38;;;16.87;64.02
21520;BME280;10921;53.614;9.882;2022-11-15T13:56:45;100632.81;;;17.06;63.72
21520;BME280;10921;53.614;9.882;2022-11-15T13:59:47;100637.00;;;17.30;63.19
21520;BME280;10921;53.614;9.882;2022-11-15T14:02:17;100637.47;;;17.34;61.61
21520;BME280;10921;53.614;9.882;2022-11-15T14:04:53;100643.84;;;17.47;62.24
21520;BME280;10921;53.614;9.882;2022-11-15T14:07:22;100640.31;;;17.47;61.13
21520;BME280;10921;53.614;9.882;2022-11-15T14:09:49;100652.66;;;17.56;60.63
21520;BME280;10921;53.614;9.882;2022-11-15T14:12:33;100642.75;;;17.63;62.02
21520;BME280;10921;53.614;9.882;2022-11-15T14:15:39;100657.84;;;17.57;61.44
21520;BME280;10921;53.614;9.882;2022-11-15T14:18:05;100654.34;;;17.42;60.41
21520;BME280;10921;53.614;9.882;2022-11-15T14:23:18;100642.91;;;17.19;61.74
21520;BME280;10921;53.614;9.882;2022-11-15T14:25:58;100637.16;;;17.07;62.41
21520;BME280;10921;53.614;9.882;2022-11-15T14:30:54;100635.59;;;16.69;62.83
21520;BME280;10921;53.614;9.882;2022-11-15T14:33:32;100624.81;;;16.54;64.10
21520;BME280;10921;53.614;9.882;2022-11-15T14:36:25;100651.47;;;16.49;64.59
21520;BME280;10921;53.614;9.882;2022-11-15T14:38:52;100638.25;;;16.25;64.50
21520;BME280;10921;53.614;9.882;2022-11-15T14:41:21;100638.88;;;16.12;65.06
21520;BME280;10921;53.614;9.882;2022-11-15T14:43:48;100647.56;;;15.99;65.40
21520;BME280;10921;53.614;9.882;2022-11-15T14:46:15;100650.03;;;15.86;65.90
21520;BME280;10921;53.614;9.882;2022-11-15T14:48:41;100633.38;;;15.68;66.17
21520;BME280;10921;53.614;9.882;2022-11-15T14:51:16;100641.97;;;15.63;67.22
21520;BME280;10921;53.614;9.882;2022-11-15T14:53:44;100641.88;;;15.48;66.92
21520;BME280;10921;53.614;9.882;2022-11-15T14:56:11;100634.91;;;15.31;67.38
21520;BME280;10921;53.614;9.882;2022-11-15T14:58:38;100627.09;;;15.22;67.89
21520;BME280;10921;53.614;9.882;2022-11-15T15:03:42;100617.69;;;14.87;68.59
21520;BME280;10921;53.614;9.882;2022-11-15T15:06:10;100612.38;;;14.70;69.13
21520;BME280;10921;53.614;9.882;2022-11-15T15:08:43;100616.44;;;14.58;69.69
21520;BME280;10921;53.614;9.882;2022-11-15T15:11:14;100634.75;;;14.55;70.47
21520;BME280;10921;53.614;9.882;2022-11-15T15:13:42;100643.63;;;14.39;70.30
21520;BME280;10921;53.614;9.882;2022-11-15T15:16:08;100629.41;;;14.22;70.87
21520;BME280;10921;53.614;9.882;2022-11-15T15:18:35;100637.97;;;14.09;71.42